createdAt,value
2022-08-28T00:00:24.221Z,1.40
2022-08-28T00:02:50.567Z,1.40
2022-08-28T00:05:18.661Z,1.50
2022-08-28T00:07:47.818Z,1.50
2022-08-28T00:10:16.789Z,1.53
2022-08-28T00:12:43.681Z,1.50
2022-08-28T00:15:12.917Z,1.50
2022-08-28T00:17:40.085Z,1.50
2022-08-28T00:20:08.628Z,1.50
2022-08-28T00:22:35.077Z,1.60
2022-08-28T00:25:01.374Z,1.50
2022-08-28T00:27:46.406Z,1.50
2022-08-28T00:30:12.791Z,1.50
2022-08-28T00:32:39.084Z,1.50
2022-08-28T00:35:06.628Z,1.50
2022-08-28T00:37:32.905Z,1.50
2022-08-28T00:39:59.212Z,1.60
2022-08-28T00:42:25.752Z,1.60
2022-08-28T00:44:52.018Z,1.50
2022-08-28T00:47:18.309Z,1.50
2022-08-28T00:49:52.751Z,1.50
2022-08-28T00:52:20.236Z,1.50
2022-08-28T00:55:05.751Z,1.57
2022-08-28T00:57:52.281Z,1.60
2022-08-28T01:00:25.321Z,1.60
2022-08-28T01:02:52.036Z,1.60
2022-08-28T01:05:19.122Z,1.60
2022-08-28T01:07:46.196Z,1.60
2022-08-28T01:10:14.888Z,1.50
2022-08-28T01:12:41.943Z,1.50
2022-08-28T01:15:11.737Z,1.60
2022-08-28T01:17:43.103Z,1.60
2022-08-28T01:20:13.228Z,1.60
2022-08-28T01:22:54.880Z,1.60
2022-08-28T01:25:22.103Z,1.50
2022-08-28T01:27:48.412Z,1.60
2022-08-28T01:30:17.279Z,1.60
2022-08-28T01:32:45.748Z,1.60
2022-08-28T01:35:13.786Z,1.50
2022-08-28T01:37:40.067Z,1.50
2022-08-28T01:40:09.322Z,1.50
2022-08-28T01:42:39.352Z,1.50
2022-08-28T01:45:08.243Z,1.50
2022-08-28T01:47:34.509Z,1.60
2022-08-28T01:50:00.840Z,1.50
2022-08-28T01:52:28.357Z,1.50
2022-08-28T01:54:54.640Z,1.50
2022-08-28T01:57:22.522Z,1.60
2022-08-28T01:59:48.864Z,1.60
2022-08-28T02:02:16.088Z,1.60
2022-08-28T02:04:46.154Z,1.50
2022-08-28T02:07:14.319Z,1.50
2022-08-28T02:09:40.588Z,1.60
2022-08-28T02:12:06.981Z,1.50
2022-08-28T02:14:33.577Z,1.60
2022-08-28T02:16:59.864Z,1.60
2022-08-28T02:19:26.146Z,1.60
2022-08-28T02:21:52.423Z,1.60
2022-08-28T02:24:18.708Z,1.60
2022-08-28T02:26:44.985Z,1.57
2022-08-28T02:29:11.837Z,1.50
2022-08-28T02:31:38.284Z,1.60
2022-08-28T02:34:04.693Z,1.50
2022-08-28T02:36:31.320Z,1.50
2022-08-28T02:38:58.040Z,1.57
2022-08-28T02:41:24.430Z,1.60
2022-08-28T02:43:50.739Z,1.50
2022-08-28T02:46:17.049Z,1.60
2022-08-28T02:48:43.371Z,1.60
2022-08-28T02:51:11.438Z,1.50
2022-08-28T02:53:39.057Z,1.50
2022-08-28T02:56:06.015Z,1.60
2022-08-28T02:58:32.879Z,1.60
2022-08-28T03:01:03.885Z,1.60
2022-08-28T03:03:31.176Z,1.60
2022-08-28T03:05:58.172Z,1.60
2022-08-28T03:08:27.297Z,1.60
2022-08-28T03:10:53.815Z,1.70
2022-08-28T03:13:26.583Z,1.60
2022-08-28T03:15:55.673Z,1.60
2022-08-28T03:18:22.857Z,1.60
2022-08-28T03:20:49.129Z,1.60
2022-08-28T03:23:27.524Z,1.60
2022-08-28T03:25:55.491Z,1.60
2022-08-28T03:28:21.792Z,1.60
2022-08-28T03:30:49.636Z,1.50
2022-08-28T03:33:16.045Z,1.60
2022-08-28T03:35:42.356Z,1.60
2022-08-28T03:38:08.701Z,1.60
2022-08-28T03:40:38.224Z,1.60
2022-08-28T03:43:04.574Z,1.60
2022-08-28T03:45:33.428Z,1.53
2022-08-28T03:47:59.839Z,1.60
2022-08-28T03:50:26.108Z,1.50
2022-08-28T03:52:54.749Z,1.70
2022-08-28T03:55:22.572Z,1.60
2022-08-28T03:57:48.869Z,1.50
2022-08-28T04:00:16.190Z,1.60
2022-08-28T04:02:43.306Z,1.60
2022-08-28T04:05:09.924Z,1.60
2022-08-28T04:07:36.221Z,1.60
2022-08-28T04:10:03.580Z,1.60
2022-08-28T04:12:29.845Z,1.60
2022-08-28T04:15:01.912Z,1.60
2022-08-28T04:17:28.185Z,1.60
2022-08-28T04:19:54.468Z,1.50
2022-08-28T04:22:20.762Z,1.70
2022-08-28T04:24:49.960Z,1.70
2022-08-28T04:27:16.307Z,1.70
2022-08-28T04:29:42.592Z,1.60
2022-08-28T04:32:08.976Z,1.60
2022-08-28T04:34:36.649Z,1.70
2022-08-28T04:37:02.950Z,1.70
2022-08-28T04:39:29.265Z,1.70
2022-08-28T04:41:55.716Z,1.70
2022-08-28T04:44:21.994Z,1.70
2022-08-28T04:46:48.305Z,1.70
2022-08-28T04:49:15.526Z,1.80
2022-08-28T04:51:42.322Z,1.70
2022-08-28T04:54:10.702Z,1.60
2022-08-28T04:56:37.130Z,1.60
2022-08-28T04:59:03.940Z,1.60
2022-08-28T05:01:30.413Z,1.70
2022-08-28T05:03:58.480Z,1.70
2022-08-28T05:06:26.816Z,1.70
2022-08-28T05:08:54.820Z,1.70
2022-08-28T05:11:32.722Z,1.80
2022-08-28T05:14:00.633Z,1.63
2022-08-28T05:16:27.167Z,1.70
2022-08-28T05:18:53.529Z,1.80
2022-08-28T05:21:21.655Z,1.70
2022-08-28T05:23:48.344Z,1.67
2022-08-28T05:28:41.733Z,1.70
2022-08-28T05:31:08.820Z,1.70
2022-08-28T05:33:35.130Z,1.70
2022-08-28T05:36:04.585Z,1.70
2022-08-28T05:38:30.931Z,1.70
2022-08-28T05:40:57.192Z,1.80
2022-08-28T05:43:24.759Z,1.70
2022-08-28T05:46:01.731Z,1.70
2022-08-28T05:48:30.376Z,1.80
2022-08-28T05:51:03.691Z,1.70
2022-08-28T05:53:30.169Z,1.77
2022-08-28T05:55:56.486Z,1.70
2022-08-28T05:58:28.968Z,1.70
2022-08-28T06:00:56.121Z,1.70
2022-08-28T06:03:23.085Z,1.70
2022-08-28T06:05:55.682Z,1.70
2022-08-28T06:08:22.890Z,1.67
2022-08-28T06:10:50.848Z,1.63
2022-08-28T06:13:17.404Z,1.63
2022-08-28T06:15:45.944Z,1.67
2022-08-28T06:18:13.462Z,1.80
2022-08-28T06:20:42.117Z,1.70
2022-08-28T06:23:13.268Z,1.70
2022-08-28T06:25:39.944Z,1.60
2022-08-28T06:28:07.461Z,1.70
2022-08-28T06:30:37.278Z,1.60
2022-08-28T06:33:07.020Z,1.70
2022-08-28T06:35:34.313Z,1.63
2022-08-28T06:38:00.930Z,1.60
2022-08-28T06:40:27.452Z,1.63
2022-08-28T06:42:53.842Z,1.70
2022-08-28T06:45:20.098Z,1.60
2022-08-28T06:47:47.155Z,1.60
2022-08-28T06:50:16.292Z,1.70
2022-08-28T06:52:43.933Z,1.80
2022-08-28T06:55:10.522Z,1.70
2022-08-28T06:57:38.011Z,1.70
2022-08-28T07:00:04.631Z,1.70
2022-08-28T07:02:30.980Z,1.60
2022-08-28T07:04:57.246Z,1.60
2022-08-28T07:07:32.547Z,1.50
2022-08-28T07:09:59.058Z,1.60
2022-08-28T07:12:25.337Z,1.60
2022-08-28T07:14:51.645Z,1.60
2022-08-28T07:17:17.941Z,1.60
2022-08-28T07:19:44.240Z,1.60
2022-08-28T07:22:10.584Z,1.60
2022-08-28T07:24:36.855Z,1.60
2022-08-28T07:27:03.250Z,1.60
2022-08-28T07:29:29.562Z,1.50
2022-08-28T07:31:57.474Z,1.60
2022-08-28T07:34:27.279Z,1.50
2022-08-28T07:36:53.784Z,1.60
2022-08-28T07:39:20.188Z,1.60
2022-08-28T07:41:46.857Z,1.40
2022-08-28T07:44:33.408Z,1.50
2022-08-28T07:47:02.152Z,1.40
2022-08-28T07:49:28.456Z,1.50
2022-08-28T07:51:54.855Z,1.40
2022-08-28T07:54:22.036Z,1.50
2022-08-28T07:56:48.437Z,1.43
2022-08-28T07:59:16.997Z,1.57
2022-08-28T08:01:44.657Z,1.40
2022-08-28T08:04:13.173Z,1.40
2022-08-28T08:06:40.930Z,1.50
2022-08-28T08:09:08.813Z,1.40
2022-08-28T08:11:35.084Z,1.40
2022-08-28T08:14:05.997Z,1.50
2022-08-28T08:16:38.627Z,1.50
2022-08-28T08:19:05.024Z,1.40
2022-08-28T08:21:32.012Z,1.40
2022-08-28T08:23:58.465Z,1.40
2022-08-28T08:26:25.784Z,1.40
2022-08-28T08:28:52.136Z,1.40
2022-08-28T08:31:22.863Z,1.50
2022-08-28T08:33:50.714Z,1.50
2022-08-28T08:36:18.212Z,1.50
2022-08-28T08:38:44.781Z,1.50
2022-08-28T08:41:23.532Z,1.50
2022-08-28T08:43:59.245Z,1.50
2022-08-28T08:46:37.464Z,1.50
2022-08-28T08:49:05.844Z,1.50
2022-08-28T08:51:39.190Z,1.50
2022-08-28T08:54:08.520Z,1.40
2022-08-28T08:56:35.306Z,1.40
2022-08-28T08:59:03.380Z,1.43
2022-08-28T09:01:33.005Z,1.50
2022-08-28T09:04:16.334Z,1.40
2022-08-28T09:06:56.726Z,1.40
2022-08-28T09:09:35.153Z,1.40
2022-08-28T09:12:09.140Z,1.40
2022-08-28T09:14:38.512Z,1.40
2022-08-28T09:17:06.609Z,1.40
2022-08-28T09:19:32.877Z,1.40
2022-08-28T09:21:59.164Z,1.40
2022-08-28T09:24:31.780Z,1.40
2022-08-28T09:27:01.513Z,1.40
2022-08-28T09:29:32.956Z,1.40
2022-08-28T09:32:14.915Z,1.40
2022-08-28T09:34:58.047Z,1.40
2022-08-28T09:37:27.937Z,1.40
2022-08-28T09:40:13.129Z,1.30
2022-08-28T09:43:02.435Z,1.40
2022-08-28T09:45:29.085Z,1.30
2022-08-28T09:47:56.519Z,1.40
2022-08-28T09:50:25.852Z,1.30
2022-08-28T09:52:53.713Z,1.30
2022-08-28T09:55:25.476Z,1.30
2022-08-28T09:57:52.474Z,1.30
2022-08-28T10:00:18.763Z,1.40
2022-08-28T10:02:45.003Z,1.30
2022-08-28T10:05:18.560Z,1.30
2022-08-28T10:08:04.520Z,8.63
2022-08-28T10:10:59.889Z,1.20
2022-08-28T10:13:30.487Z,1.30
2022-08-28T10:15:59.783Z,1.40
2022-08-28T10:18:29.136Z,1.30
2022-08-28T10:20:55.369Z,1.30
2022-08-28T10:23:24.850Z,1.30
2022-08-28T10:26:03.280Z,1.30
2022-08-28T10:28:38.978Z,1.30
2022-08-28T10:31:11.259Z,1.20
2022-08-28T10:33:57.561Z,1.20
2022-08-28T10:36:33.593Z,1.20
2022-08-28T10:39:07.348Z,1.20
2022-08-28T10:41:45.889Z,1.20
2022-08-28T10:44:15.410Z,1.13
2022-08-28T10:46:46.142Z,1.13
2022-08-28T10:49:21.247Z,1.20
2022-08-28T10:51:54.103Z,1.10
2022-08-28T10:54:23.600Z,1.10
2022-08-28T10:56:56.445Z,1.20
2022-08-28T10:59:23.397Z,1.10
2022-08-28T11:01:49.850Z,1.10
2022-08-28T11:04:25.191Z,1.10
2022-08-28T11:06:51.875Z,1.00
2022-08-28T11:09:29.047Z,1.00
2022-08-28T11:12:02.208Z,1.10
2022-08-28T11:14:35.547Z,1.00
2022-08-28T11:17:09.126Z,1.10
2022-08-28T11:19:55.853Z,1.00
2022-08-28T11:22:22.110Z,1.00
2022-08-28T11:24:59.294Z,1.00
2022-08-28T11:27:31.277Z,1.00
2022-08-28T11:29:58.351Z,0.90
2022-08-28T11:32:36.493Z,0.90
2022-08-28T11:35:04.404Z,0.90
2022-08-28T11:37:36.643Z,0.90
2022-08-28T11:40:19.734Z,0.83
2022-08-28T11:42:49.837Z,0.80
2022-08-28T11:45:20.546Z,0.70
2022-08-28T11:47:48.317Z,0.67
2022-08-28T11:50:20.402Z,0.83
2022-08-28T11:53:13.514Z,0.60
2022-08-28T11:55:49.027Z,0.40
2022-08-28T11:58:29.844Z,0.40
2022-08-28T12:00:59.858Z,0.40
2022-08-28T12:03:31.280Z,0.30
2022-08-28T12:05:58.554Z,0.40
2022-08-28T12:08:43.620Z,0.30
2022-08-28T12:11:10.245Z,0.30
2022-08-28T12:13:51.359Z,0.30
2022-08-28T12:16:18.062Z,0.30
2022-08-28T12:18:47.365Z,0.40
2022-08-28T12:21:17.214Z,0.20
2022-08-28T12:23:43.520Z,0.70
2022-08-28T12:26:15.920Z,0.20
2022-08-28T12:28:50.731Z,0.20
2022-08-28T12:31:17.039Z,0.20
2022-08-28T12:33:46.326Z,0.10
2022-08-28T12:36:15.682Z,0.10
2022-08-28T12:38:48.031Z,0.10
2022-08-28T12:41:16.898Z,0.10
2022-08-28T12:43:46.499Z,0.00
2022-08-28T12:46:27.082Z,0.10
2022-08-28T12:48:54.999Z,0.00
2022-08-28T12:51:25.753Z,0.00
2022-08-28T12:53:56.446Z,0.00
2022-08-28T12:56:23.579Z,0.00
2022-08-28T12:58:50.122Z,0.00
2022-08-28T13:01:30.791Z,0.00
2022-08-28T13:03:59.103Z,0.00
2022-08-28T13:06:30.076Z,0.00
2022-08-28T13:08:59.295Z,0.00
2022-08-28T13:11:25.854Z,0.00
2022-08-28T13:13:52.188Z,0.00
2022-08-28T13:16:37.438Z,0.00
2022-08-28T13:19:03.720Z,0.00
2022-08-28T13:21:34.876Z,0.00
2022-08-28T13:24:26.013Z,0.00
2022-08-28T13:27:11.100Z,0.00
2022-08-28T13:29:38.783Z,0.00
2022-08-28T13:32:05.515Z,0.00
2022-08-28T13:34:47.633Z,0.00
2022-08-28T13:37:34.518Z,0.00
2022-08-28T13:40:02.522Z,0.00
2022-08-28T13:42:32.801Z,0.00
2022-08-28T13:44:59.120Z,0.00
2022-08-28T13:47:25.907Z,0.00
2022-08-28T13:49:52.171Z,0.00
2022-08-28T13:52:18.450Z,0.00
2022-08-28T13:54:45.543Z,0.00
2022-08-28T13:57:13.425Z,0.00
2022-08-28T13:59:39.980Z,0.00
2022-08-28T14:02:26.327Z,0.10
2022-08-28T14:04:53.655Z,0.00
2022-08-28T14:07:20.102Z,0.00
2022-08-28T14:09:46.532Z,0.00
2022-08-28T14:12:13.758Z,0.00
2022-08-28T14:14:40.160Z,0.00
2022-08-28T14:17:07.046Z,0.00
2022-08-28T14:19:33.671Z,0.00
2022-08-28T14:22:00.080Z,0.00
2022-08-28T14:24:26.689Z,0.00
2022-08-28T14:26:53.573Z,0.00
2022-08-28T14:29:20.119Z,0.00
2022-08-28T14:31:46.875Z,0.00
2022-08-28T14:34:17.945Z,0.00
2022-08-28T14:36:44.458Z,0.00
2022-08-28T14:39:11.431Z,0.00
2022-08-28T14:41:37.981Z,0.00
2022-08-28T14:44:04.665Z,0.00
2022-08-28T14:46:32.453Z,0.00
2022-08-28T14:49:00.606Z,0.00
2022-08-28T14:51:27.285Z,0.00
2022-08-28T14:53:53.964Z,0.00
2022-08-28T14:56:21.033Z,0.00
2022-08-28T14:58:47.297Z,0.00
2022-08-28T15:01:39.522Z,0.00
2022-08-28T15:04:08.223Z,0.00
2022-08-28T15:06:35.446Z,0.00
2022-08-28T15:09:01.755Z,0.00
2022-08-28T15:11:29.480Z,0.00
2022-08-28T15:13:57.889Z,0.00
2022-08-28T15:16:29.887Z,0.00
2022-08-28T15:18:57.408Z,0.00
2022-08-28T15:21:23.988Z,0.00
2022-08-28T15:23:51.321Z,0.00
2022-08-28T15:26:18.895Z,0.00
2022-08-28T15:28:45.238Z,0.00
2022-08-28T15:31:12.143Z,0.00
2022-08-28T15:33:41.121Z,2.37
2022-08-28T15:36:11.167Z,0.00
2022-08-28T15:38:55.804Z,0.00
2022-08-28T15:41:25.840Z,0.00
2022-08-28T15:43:56.641Z,0.00
2022-08-28T15:46:23.288Z,0.00
2022-08-28T15:48:50.112Z,0.00
2022-08-28T15:51:23.946Z,0.00
2022-08-28T15:53:52.408Z,0.00
2022-08-28T15:56:18.843Z,0.00
2022-08-28T15:58:45.156Z,0.00
2022-08-28T16:01:11.436Z,0.00
2022-08-28T16:03:38.390Z,0.00
2022-08-28T16:06:09.665Z,0.00
2022-08-28T16:08:36.013Z,0.00
2022-08-28T16:11:02.303Z,0.00
2022-08-28T16:13:28.580Z,0.00
2022-08-28T16:15:55.276Z,0.00
2022-08-28T16:18:21.793Z,0.00
2022-08-28T16:20:48.065Z,0.00
2022-08-28T16:23:14.564Z,0.00
2022-08-28T16:25:41.481Z,0.00
2022-08-28T16:28:07.994Z,0.00
2022-08-28T16:30:36.992Z,0.00
2022-08-28T16:33:10.259Z,0.00
2022-08-28T16:35:41.136Z,0.10
2022-08-28T16:38:15.653Z,0.00
2022-08-28T16:40:45.867Z,0.00
2022-08-28T16:43:13.001Z,0.00
2022-08-28T16:45:41.551Z,0.00
2022-08-28T16:48:07.849Z,0.00
2022-08-28T16:50:34.164Z,0.03
2022-08-28T16:53:03.649Z,0.00
2022-08-28T16:55:33.272Z,0.10
2022-08-28T16:57:59.575Z,0.00
2022-08-28T17:00:25.876Z,0.00
2022-08-28T17:02:52.203Z,0.00
2022-08-28T17:05:19.831Z,0.07
2022-08-28T17:07:46.737Z,0.10
2022-08-28T17:10:14.572Z,0.10
2022-08-28T17:12:42.393Z,0.10
2022-08-28T17:15:08.944Z,0.00
2022-08-28T17:17:37.870Z,0.10
2022-08-28T17:20:05.395Z,0.10
2022-08-28T17:22:32.199Z,0.10
2022-08-28T17:25:03.733Z,0.10
2022-08-28T17:27:32.064Z,0.10
2022-08-28T17:29:58.453Z,0.10
2022-08-28T17:32:24.885Z,0.10
2022-08-28T17:34:51.159Z,0.10
2022-08-28T17:37:19.006Z,0.10
2022-08-28T17:39:45.528Z,0.10
2022-08-28T17:42:11.877Z,0.10
2022-08-28T17:44:38.140Z,0.10
2022-08-28T17:47:04.798Z,0.10
2022-08-28T17:49:31.570Z,0.10
2022-08-28T17:51:57.848Z,0.10
2022-08-28T17:54:24.318Z,0.20
2022-08-28T17:56:51.952Z,0.20
2022-08-28T17:59:18.477Z,0.20
2022-08-28T18:01:45.400Z,0.20
2022-08-28T18:04:12.286Z,0.20
2022-08-28T18:06:39.366Z,0.20
2022-08-28T18:09:05.768Z,0.20
2022-08-28T18:11:32.163Z,0.20
2022-08-28T18:13:59.690Z,0.20
2022-08-28T18:16:31.118Z,0.27
2022-08-28T18:18:58.015Z,0.23
2022-08-28T18:21:24.744Z,0.20
2022-08-28T18:23:51.047Z,0.30
2022-08-28T18:26:17.566Z,0.30
2022-08-28T18:28:43.915Z,0.30
2022-08-28T18:31:10.217Z,0.30
2022-08-28T18:33:37.168Z,0.30
2022-08-28T18:36:06.808Z,0.40
2022-08-28T18:38:35.427Z,0.30
2022-08-28T18:41:02.504Z,0.30
2022-08-28T18:43:28.916Z,0.40
2022-08-28T18:45:55.372Z,0.40
2022-08-28T18:48:21.931Z,0.40
2022-08-28T18:50:48.422Z,0.40
2022-08-28T18:53:15.565Z,0.40
2022-08-28T18:55:41.858Z,0.40
2022-08-28T18:58:08.281Z,0.50
2022-08-28T19:00:37.718Z,0.50
2022-08-28T19:03:04.783Z,0.40
2022-08-28T19:05:31.709Z,0.40
2022-08-28T19:08:00.079Z,0.50
2022-08-28T19:10:33.407Z,0.50
2022-08-28T19:13:00.970Z,0.50
2022-08-28T19:15:28.104Z,0.50
2022-08-28T19:17:54.430Z,0.60
2022-08-28T19:20:20.751Z,0.60
2022-08-28T19:22:48.570Z,0.57
2022-08-28T19:25:28.247Z,0.60
2022-08-28T19:27:56.377Z,0.60
2022-08-28T19:30:26.139Z,0.50
2022-08-28T19:32:52.540Z,0.60
2022-08-28T19:35:19.078Z,0.60
2022-08-28T19:37:45.536Z,0.60
2022-08-28T19:40:14.973Z,0.60
2022-08-28T19:42:41.388Z,0.60
2022-08-28T19:45:08.669Z,0.60
2022-08-28T19:47:35.911Z,0.70
2022-08-28T19:50:02.616Z,0.60
2022-08-28T19:52:29.699Z,0.70
2022-08-28T19:54:55.959Z,0.70
2022-08-28T19:57:22.477Z,0.70
2022-08-28T19:59:48.828Z,0.60
2022-08-28T20:02:15.212Z,0.70
2022-08-28T20:04:41.504Z,0.77
2022-08-28T20:07:07.797Z,0.70
2022-08-28T20:09:34.141Z,0.77
2022-08-28T20:12:00.854Z,0.70
2022-08-28T20:14:27.167Z,0.70
2022-08-28T20:16:54.377Z,0.70
2022-08-28T20:19:21.101Z,0.70
2022-08-28T20:21:51.352Z,0.70
2022-08-28T20:24:20.447Z,0.80
2022-08-28T20:26:46.784Z,0.80
2022-08-28T20:29:13.350Z,0.80
2022-08-28T20:31:41.335Z,0.80
2022-08-28T20:34:10.412Z,0.87
2022-08-28T20:36:37.102Z,0.83
2022-08-28T20:39:07.545Z,0.80
2022-08-28T20:41:34.267Z,5.67
2022-08-28T20:44:05.596Z,0.90
2022-08-28T20:46:37.055Z,0.90
2022-08-28T20:49:06.389Z,0.90
2022-08-28T20:51:51.606Z,0.90
2022-08-28T20:54:20.672Z,0.93
2022-08-28T20:56:47.767Z,0.90
2022-08-28T20:59:14.289Z,0.90
2022-08-28T21:01:40.870Z,0.90
2022-08-28T21:04:07.247Z,1.00
2022-08-28T21:06:33.637Z,1.00
2022-08-28T21:09:00.168Z,1.03
2022-08-28T21:11:27.045Z,1.00
2022-08-28T21:13:53.795Z,1.00
2022-08-28T21:16:20.230Z,1.00
2022-08-28T21:19:13.922Z,1.00
2022-08-28T21:21:34.311Z,1.00
2022-08-28T21:24:02.150Z,1.00
2022-08-28T21:26:28.470Z,1.00
2022-08-28T21:28:54.901Z,1.00
2022-08-28T21:31:21.255Z,1.00
2022-08-28T21:33:47.604Z,1.00
2022-08-28T21:36:15.554Z,1.00
2022-08-28T21:38:42.058Z,1.00
2022-08-28T21:41:14.411Z,1.00
2022-08-28T21:43:44.816Z,1.00
2022-08-28T21:46:12.278Z,1.00
2022-08-28T21:48:38.774Z,1.10
2022-08-28T21:51:09.718Z,1.03
2022-08-28T21:53:36.067Z,1.10
2022-08-28T21:56:02.956Z,1.10
2022-08-28T21:58:29.324Z,1.00
2022-08-28T22:00:57.024Z,1.10
2022-08-28T22:03:24.031Z,1.10
2022-08-28T22:05:51.067Z,1.10
2022-08-28T22:08:18.442Z,2.40
2022-08-28T22:10:45.173Z,1.10
2022-08-28T22:13:12.754Z,1.10
2022-08-28T22:15:39.930Z,1.10
2022-08-28T22:18:07.207Z,1.00
2022-08-28T22:20:34.161Z,1.10
2022-08-28T22:23:09.571Z,1.17
2022-08-28T22:25:40.934Z,1.17
2022-08-28T22:28:07.814Z,1.20
2022-08-28T22:30:34.169Z,1.10
2022-08-28T22:33:01.496Z,1.17
2022-08-28T22:35:28.018Z,1.20
2022-08-28T22:37:54.589Z,3.30
2022-08-28T22:40:21.856Z,1.20
2022-08-28T22:42:48.399Z,1.20
2022-08-28T22:45:15.357Z,1.20
2022-08-28T22:47:41.621Z,1.20
2022-08-28T22:50:08.453Z,1.20
2022-08-28T22:52:34.795Z,1.20
2022-08-28T22:55:01.353Z,1.20
2022-08-28T22:57:28.268Z,1.20
2022-08-28T22:59:54.556Z,1.20
2022-08-28T23:02:21.365Z,1.30
2022-08-28T23:04:52.051Z,1.30
2022-08-28T23:07:18.749Z,1.30
2022-08-28T23:09:45.080Z,1.30
2022-08-28T23:12:11.341Z,1.30
2022-08-28T23:14:37.642Z,1.30
2022-08-28T23:17:03.971Z,1.30
2022-08-28T23:19:30.750Z,1.30
2022-08-28T23:21:57.083Z,1.40
2022-08-28T23:24:23.388Z,1.30
2022-08-28T23:26:49.682Z,1.40
2022-08-28T23:31:56.273Z,1.40
2022-08-28T23:34:24.511Z,1.40
2022-08-28T23:36:52.449Z,1.30
2022-08-28T23:39:30.433Z,1.40
2022-08-28T23:41:56.893Z,1.40
2022-08-28T23:44:35.227Z,1.40
2022-08-28T23:47:01.811Z,1.37
2022-08-28T23:49:29.092Z,1.40
2022-08-28T23:52:07.096Z,1.40
2022-08-28T23:54:33.618Z,1.50
2022-08-28T23:57:11.804Z,1.40
2022-08-28T23:59:38.125Z,1.40
